sensor_id;sensor_type;location;lat;lon;timestamp;P1;durP1;ratioP1;P2;durP2;ratioP2
33160;SDS011;19522;45.656;11.302;2023-06-14T00:01:05;6.88;;;5.15;;
33160;SDS011;19522;45.656;11.302;2023-06-14T00:03:31;8.00;;;4.90;;
33160;SDS011;19522;45.656;11.302;2023-06-14T00:05:57;9.15;;;4.15;;
33160;SDS011;19522;45.656;11.302;2023-06-14T00:08:22;5.60;;;4.35;;
33160;SDS011;19522;45.656;11.302;2023-06-14T00:10:52;9.98;;;5.13;;
33160;SDS011;19522;45.656;11.302;2023-06-14T00:13:18;8.68;;;5.82;;
33160;SDS011;19522;45.656;11.302;2023-06-14T00:15:45;5.63;;;4.50;;
33160;SDS011;19522;45.656;11.302;2023-06-14T00:18:11;5.85;;;4.30;;
33160;SDS011;19522;45.656;11.302;2023-06-14T00:20:37;5.63;;;4.53;;
33160;SDS011;19522;45.656;11.302;2023-06-14T00:23:02;6.25;;;4.60;;
33160;SDS011;19522;45.656;11.302;2023-06-14T00:25:28;6.00;;;4.60;;
33160;SDS011;19522;45.656;11.302;2023-06-14T00:27:54;4.97;;;4.47;;
33160;SDS011;19522;45.656;11.302;2023-06-14T00:30:20;7.68;;;4.60;;
33160;SDS011;19522;45.656;11.302;2023-06-14T00:32:46;7.03;;;5.10;;
33160;SDS011;19522;45.656;11.302;2023-06-14T00:35:12;5.65;;;4.63;;
33160;SDS011;19522;45.656;11.302;2023-06-14T00:37:38;5.50;;;4.38;;
33160;SDS011;19522;45.656;11.302;2023-06-14T00:40:07;8.02;;;4.65;;
33160;SDS011;19522;45.656;11.302;2023-06-14T00:42:33;9.75;;;4.50;;
33160;SDS011;19522;45.656;11.302;2023-06-14T00:44:59;7.45;;;4.70;;
33160;SDS011;19522;45.656;11.302;2023-06-14T00:47:25;8.15;;;4.45;;
33160;SDS011;19522;45.656;11.302;2023-06-14T00:49:52;7.35;;;4.60;;
33160;SDS011;19522;45.656;11.302;2023-06-14T00:52:18;5.57;;;3.88;;
33160;SDS011;19522;45.656;11.302;2023-06-14T00:54:45;7.32;;;4.85;;
33160;SDS011;19522;45.656;11.302;2023-06-14T00:57:11;7.72;;;4.45;;
33160;SDS011;19522;45.656;11.302;2023-06-14T00:59:38;7.30;;;4.57;;
33160;SDS011;19522;45.656;11.302;2023-06-14T01:02:07;7.22;;;4.65;;
33160;SDS011;19522;45.656;11.302;2023-06-14T01:04:33;6.35;;;4.25;;
33160;SDS011;19522;45.656;11.302;2023-06-14T01:07:03;6.30;;;4.70;;
33160;SDS011;19522;45.656;11.302;2023-06-14T01:12:41;6.55;;;4.65;;
33160;SDS011;19522;45.656;11.302;2023-06-14T01:15:16;7.28;;;4.60;;
33160;SDS011;19522;45.656;11.302;2023-06-14T01:17:42;6.18;;;4.75;;
33160;SDS011;19522;45.656;11.302;2023-06-14T01:20:11;6.63;;;4.22;;
33160;SDS011;19522;45.656;11.302;2023-06-14T01:22:52;6.47;;;4.40;;
33160;SDS011;19522;45.656;11.302;2023-06-14T01:25:22;5.07;;;4.30;;
33160;SDS011;19522;45.656;11.302;2023-06-14T01:27:49;7.32;;;4.50;;
33160;SDS011;19522;45.656;11.302;2023-06-14T01:30:16;8.15;;;5.05;;
33160;SDS011;19522;45.656;11.302;2023-06-14T01:32:43;5.95;;;4.53;;
33160;SDS011;19522;45.656;11.302;2023-06-14T01:35:10;5.70;;;4.50;;
33160;SDS011;19522;45.656;11.302;2023-06-14T01:37:39;7.57;;;4.45;;
33160;SDS011;19522;45.656;11.302;2023-06-14T01:40:07;6.55;;;4.65;;
33160;SDS011;19522;45.656;11.302;2023-06-14T01:42:35;7.30;;;4.63;;
33160;SDS011;19522;45.656;11.302;2023-06-14T01:45:04;6.40;;;5.07;;
33160;SDS011;19522;45.656;11.302;2023-06-14T01:47:31;5.93;;;4.80;;
33160;SDS011;19522;45.656;11.302;2023-06-14T01:49:57;7.22;;;5.35;;
33160;SDS011;19522;45.656;11.302;2023-06-14T01:52:22;6.40;;;5.25;;
33160;SDS011;19522;45.656;11.302;2023-06-14T01:54:49;8.10;;;5.20;;
33160;SDS011;19522;45.656;11.302;2023-06-14T01:57:15;6.90;;;5.35;;
33160;SDS011;19522;45.656;11.302;2023-06-14T01:59:44;8.48;;;5.63;;
33160;SDS011;19522;45.656;11.302;2023-06-14T02:02:13;25.17;;;16.23;;
33160;SDS011;19522;45.656;11.302;2023-06-14T02:04:39;34.35;;;21.95;;
33160;SDS011;19522;45.656;11.302;2023-06-14T02:07:05;15.98;;;10.30;;
33160;SDS011;19522;45.656;11.302;2023-06-14T02:09:30;7.38;;;5.97;;
33160;SDS011;19522;45.656;11.302;2023-06-14T02:11:56;9.07;;;5.80;;
33160;SDS011;19522;45.656;11.302;2023-06-14T02:14:21;7.95;;;5.20;;
33160;SDS011;19522;45.656;11.302;2023-06-14T02:16:48;6.15;;;4.78;;
33160;SDS011;19522;45.656;11.302;2023-06-14T02:19:14;7.05;;;5.20;;
33160;SDS011;19522;45.656;11.302;2023-06-14T02:21:41;6.85;;;4.70;;
33160;SDS011;19522;45.656;11.302;2023-06-14T02:24:07;7.10;;;4.75;;
33160;SDS011;19522;45.656;11.302;2023-06-14T02:26:33;6.78;;;4.75;;
33160;SDS011;19522;45.656;11.302;2023-06-14T02:28:59;8.85;;;4.82;;
33160;SDS011;19522;45.656;11.302;2023-06-14T02:31:25;6.57;;;4.95;;
33160;SDS011;19522;45.656;11.302;2023-06-14T02:33:51;6.03;;;4.57;;
33160;SDS011;19522;45.656;11.302;2023-06-14T02:36:16;6.82;;;4.68;;
33160;SDS011;19522;45.656;11.302;2023-06-14T02:38:42;7.40;;;4.88;;
33160;SDS011;19522;45.656;11.302;2023-06-14T02:41:07;8.00;;;4.80;;
33160;SDS011;19522;45.656;11.302;2023-06-14T02:43:33;8.40;;;4.78;;
33160;SDS011;19522;45.656;11.302;2023-06-14T02:46:01;6.82;;;4.90;;
33160;SDS011;19522;45.656;11.302;2023-06-14T02:48:27;8.77;;;5.07;;
33160;SDS011;19522;45.656;11.302;2023-06-14T02:50:53;6.32;;;4.57;;
33160;SDS011;19522;45.656;11.302;2023-06-14T02:53:18;6.20;;;4.85;;
33160;SDS011;19522;45.656;11.302;2023-06-14T02:55:44;9.90;;;5.18;;
33160;SDS011;19522;45.656;11.302;2023-06-14T02:58:11;6.22;;;4.68;;
33160;SDS011;19522;45.656;11.302;2023-06-14T03:00:38;7.43;;;4.68;;
33160;SDS011;19522;45.656;11.302;2023-06-14T03:03:06;6.00;;;4.45;;
33160;SDS011;19522;45.656;11.302;2023-06-14T03:05:40;7.07;;;5.13;;
33160;SDS011;19522;45.656;11.302;2023-06-14T03:08:11;7.05;;;4.43;;
33160;SDS011;19522;45.656;11.302;2023-06-14T03:10:48;7.35;;;4.47;;
33160;SDS011;19522;45.656;11.302;2023-06-14T03:13:17;7.00;;;4.85;;
33160;SDS011;19522;45.656;11.302;2023-06-14T03:15:46;6.13;;;4.78;;
33160;SDS011;19522;45.656;11.302;2023-06-14T03:18:12;6.32;;;4.88;;
33160;SDS011;19522;45.656;11.302;2023-06-14T03:20:40;6.03;;;4.88;;
33160;SDS011;19522;45.656;11.302;2023-06-14T03:23:06;6.80;;;4.85;;
33160;SDS011;19522;45.656;11.302;2023-06-14T03:25:31;6.18;;;4.57;;
33160;SDS011;19522;45.656;11.302;2023-06-14T03:28:00;9.05;;;5.72;;
33160;SDS011;19522;45.656;11.302;2023-06-14T03:30:27;6.60;;;5.00;;
33160;SDS011;19522;45.656;11.302;2023-06-14T03:32:52;13.25;;;6.25;;
33160;SDS011;19522;45.656;11.302;2023-06-14T03:35:21;7.40;;;4.80;;
33160;SDS011;19522;45.656;11.302;2023-06-14T03:37:49;5.57;;;4.22;;
33160;SDS011;19522;45.656;11.302;2023-06-14T03:40:16;6.43;;;4.55;;
33160;SDS011;19522;45.656;11.302;2023-06-14T03:42:43;7.22;;;4.70;;
33160;SDS011;19522;45.656;11.302;2023-06-14T03:45:12;4.93;;;4.07;;
33160;SDS011;19522;45.656;11.302;2023-06-14T03:47:38;8.40;;;4.38;;
33160;SDS011;19522;45.656;11.302;2023-06-14T03:50:04;7.55;;;4.82;;
33160;SDS011;19522;45.656;11.302;2023-06-14T03:52:31;6.25;;;4.95;;
33160;SDS011;19522;45.656;11.302;2023-06-14T03:57:31;6.88;;;4.30;;
33160;SDS011;19522;45.656;11.302;2023-06-14T03:59:57;6.25;;;5.00;;
33160;SDS011;19522;45.656;11.302;2023-06-14T04:02:22;8.73;;;5.15;;
33160;SDS011;19522;45.656;11.302;2023-06-14T04:04:48;7.18;;;5.00;;
33160;SDS011;19522;45.656;11.302;2023-06-14T04:07:14;8.50;;;5.00;;
33160;SDS011;19522;45.656;11.302;2023-06-14T04:09:44;7.63;;;4.60;;
33160;SDS011;19522;45.656;11.302;2023-06-14T04:12:10;6.65;;;4.60;;
33160;SDS011;19522;45.656;11.302;2023-06-14T04:14:39;6.97;;;4.25;;
33160;SDS011;19522;45.656;11.302;2023-06-14T04:17:05;10.70;;;4.90;;
33160;SDS011;19522;45.656;11.302;2023-06-14T04:19:31;9.85;;;5.45;;
33160;SDS011;19522;45.656;11.302;2023-06-14T04:21:57;6.40;;;5.05;;
33160;SDS011;19522;45.656;11.302;2023-06-14T04:24:24;7.45;;;4.53;;
33160;SDS011;19522;45.656;11.302;2023-06-14T04:26:56;7.28;;;5.05;;
33160;SDS011;19522;45.656;11.302;2023-06-14T04:29:23;6.85;;;5.53;;
33160;SDS011;19522;45.656;11.302;2023-06-14T04:31:53;6.85;;;5.35;;
33160;SDS011;19522;45.656;11.302;2023-06-14T04:34:19;6.10;;;5.05;;
33160;SDS011;19522;45.656;11.302;2023-06-14T04:36:46;5.53;;;4.53;;
33160;SDS011;19522;45.656;11.302;2023-06-14T04:39:18;7.20;;;5.00;;
33160;SDS011;19522;45.656;11.302;2023-06-14T04:41:46;4.95;;;4.05;;
33160;SDS011;19522;45.656;11.302;2023-06-14T04:44:12;5.32;;;4.47;;
33160;SDS011;19522;45.656;11.302;2023-06-14T04:46:38;6.28;;;4.97;;
33160;SDS011;19522;45.656;11.302;2023-06-14T04:49:13;5.28;;;4.32;;
33160;SDS011;19522;45.656;11.302;2023-06-14T04:51:42;7.93;;;5.13;;
33160;SDS011;19522;45.656;11.302;2023-06-14T04:54:10;7.97;;;4.88;;
33160;SDS011;19522;45.656;11.302;2023-06-14T04:56:38;7.03;;;4.85;;
33160;SDS011;19522;45.656;11.302;2023-06-14T04:59:04;6.85;;;4.78;;
33160;SDS011;19522;45.656;11.302;2023-06-14T05:01:34;6.40;;;4.18;;
33160;SDS011;19522;45.656;11.302;2023-06-14T05:03:59;6.22;;;4.43;;
33160;SDS011;19522;45.656;11.302;2023-06-14T05:06:25;7.22;;;4.57;;
33160;SDS011;19522;45.656;11.302;2023-06-14T05:08:53;7.65;;;4.20;;
33160;SDS011;19522;45.656;11.302;2023-06-14T05:11:19;6.18;;;4.50;;
33160;SDS011;19522;45.656;11.302;2023-06-14T05:13:44;7.00;;;4.63;;
33160;SDS011;19522;45.656;11.302;2023-06-14T05:16:13;6.60;;;4.43;;
33160;SDS011;19522;45.656;11.302;2023-06-14T05:18:40;5.57;;;4.40;;
33160;SDS011;19522;45.656;11.302;2023-06-14T05:21:06;6.28;;;4.45;;
33160;SDS011;19522;45.656;11.302;2023-06-14T05:23:31;7.95;;;4.55;;
33160;SDS011;19522;45.656;11.302;2023-06-14T05:25:57;7.10;;;4.70;;
33160;SDS011;19522;45.656;11.302;2023-06-14T05:28:23;6.15;;;4.30;;
33160;SDS011;19522;45.656;11.302;2023-06-14T05:30:49;7.22;;;4.57;;
33160;SDS011;19522;45.656;11.302;2023-06-14T05:33:15;5.90;;;4.18;;
33160;SDS011;19522;45.656;11.302;2023-06-14T05:35:43;9.10;;;4.63;;
33160;SDS011;19522;45.656;11.302;2023-06-14T05:38:08;6.20;;;4.88;;
33160;SDS011;19522;45.656;11.302;2023-06-14T05:40:33;5.70;;;4.72;;
33160;SDS011;19522;45.656;11.302;2023-06-14T05:43:02;6.30;;;3.88;;
33160;SDS011;19522;45.656;11.302;2023-06-14T05:45:27;7.10;;;4.60;;
33160;SDS011;19522;45.656;11.302;2023-06-14T05:47:53;5.65;;;4.10;;
33160;SDS011;19522;45.656;11.302;2023-06-14T05:50:20;6.38;;;4.28;;
33160;SDS011;19522;45.656;11.302;2023-06-14T05:52:46;7.18;;;4.30;;
33160;SDS011;19522;45.656;11.302;2023-06-14T05:55:11;5.43;;;4.70;;
33160;SDS011;19522;45.656;11.302;2023-06-14T05:57:37;6.95;;;4.40;;
33160;SDS011;19522;45.656;11.302;2023-06-14T06:00:03;8.38;;;4.50;;
33160;SDS011;19522;45.656;11.302;2023-06-14T06:02:36;5.10;;;4.05;;
33160;SDS011;19522;45.656;11.302;2023-06-14T06:05:01;6.45;;;4.30;;
33160;SDS011;19522;45.656;11.302;2023-06-14T06:07:27;5.10;;;4.07;;
33160;SDS011;19522;45.656;11.302;2023-06-14T06:09:53;5.78;;;4.35;;
33160;SDS011;19522;45.656;11.302;2023-06-14T06:12:18;5.53;;;4.00;;
33160;SDS011;19522;45.656;11.302;2023-06-14T06:14:43;6.93;;;4.00;;
33160;SDS011;19522;45.656;11.302;2023-06-14T06:17:09;5.28;;;3.72;;
33160;SDS011;19522;45.656;11.302;2023-06-14T06:19:34;7.05;;;3.90;;
33160;SDS011;19522;45.656;11.302;2023-06-14T06:22:00;6.28;;;4.43;;
33160;SDS011;19522;45.656;11.302;2023-06-14T06:24:25;5.75;;;4.13;;
33160;SDS011;19522;45.656;11.302;2023-06-14T06:26:51;4.72;;;4.22;;
33160;SDS011;19522;45.656;11.302;2023-06-14T06:29:16;8.20;;;4.22;;
33160;SDS011;19522;45.656;11.302;2023-06-14T06:31:42;6.13;;;3.85;;
33160;SDS011;19522;45.656;11.302;2023-06-14T06:34:07;6.53;;;3.80;;
33160;SDS011;19522;45.656;11.302;2023-06-14T06:36:32;6.20;;;3.95;;
33160;SDS011;19522;45.656;11.302;2023-06-14T06:38:58;5.53;;;3.58;;
33160;SDS011;19522;45.656;11.302;2023-06-14T06:41:23;7.07;;;4.55;;
33160;SDS011;19522;45.656;11.302;2023-06-14T06:43:49;6.93;;;4.00;;
33160;SDS011;19522;45.656;11.302;2023-06-14T06:46:15;7.70;;;4.45;;
33160;SDS011;19522;45.656;11.302;2023-06-14T06:48:40;4.75;;;3.72;;
33160;SDS011;19522;45.656;11.302;2023-06-14T06:51:06;6.28;;;3.78;;
33160;SDS011;19522;45.656;11.302;2023-06-14T06:53:31;4.72;;;3.85;;
33160;SDS011;19522;45.656;11.302;2023-06-14T06:55:56;4.63;;;3.80;;
33160;SDS011;19522;45.656;11.302;2023-06-14T06:58:22;5.18;;;3.65;;
33160;SDS011;19522;45.656;11.302;2023-06-14T07:00:48;4.38;;;3.80;;
33160;SDS011;19522;45.656;11.302;2023-06-14T07:03:13;6.20;;;3.83;;
33160;SDS011;19522;45.656;11.302;2023-06-14T07:05:39;5.40;;;4.05;;
33160;SDS011;19522;45.656;11.302;2023-06-14T07:08:05;4.47;;;3.88;;
33160;SDS011;19522;45.656;11.302;2023-06-14T07:10:30;7.20;;;3.33;;
33160;SDS011;19522;45.656;11.302;2023-06-14T07:12:56;5.43;;;3.58;;
33160;SDS011;19522;45.656;11.302;2023-06-14T07:15:21;7.07;;;3.70;;
33160;SDS011;19522;45.656;11.302;2023-06-14T07:17:46;5.32;;;3.78;;
33160;SDS011;19522;45.656;11.302;2023-06-14T07:20:12;5.75;;;3.58;;
33160;SDS011;19522;45.656;11.302;2023-06-14T07:22:42;3.72;;;3.22;;
33160;SDS011;19522;45.656;11.302;2023-06-14T07:25:08;5.03;;;3.13;;
33160;SDS011;19522;45.656;11.302;2023-06-14T07:27:37;5.13;;;3.50;;
33160;SDS011;19522;45.656;11.302;2023-06-14T07:30:02;6.22;;;3.10;;
33160;SDS011;19522;45.656;11.302;2023-06-14T07:32:29;4.97;;;2.80;;
33160;SDS011;19522;45.656;11.302;2023-06-14T07:34:54;6.68;;;4.18;;
33160;SDS011;19522;45.656;11.302;2023-06-14T07:37:20;7.15;;;3.85;;
33160;SDS011;19522;45.656;11.302;2023-06-14T07:39:45;4.25;;;3.50;;
33160;SDS011;19522;45.656;11.302;2023-06-14T07:42:11;5.00;;;3.58;;
33160;SDS011;19522;45.656;11.302;2023-06-14T07:44:36;4.80;;;2.97;;
33160;SDS011;19522;45.656;11.302;2023-06-14T07:47:02;6.05;;;3.55;;
33160;SDS011;19522;45.656;11.302;2023-06-14T07:49:27;5.95;;;3.70;;
33160;SDS011;19522;45.656;11.302;2023-06-14T07:51:56;6.10;;;3.47;;
33160;SDS011;19522;45.656;11.302;2023-06-14T07:54:21;5.82;;;3.47;;
33160;SDS011;19522;45.656;11.302;2023-06-14T07:56:51;6.55;;;4.03;;
33160;SDS011;19522;45.656;11.302;2023-06-14T07:59:16;4.38;;;3.47;;
33160;SDS011;19522;45.656;11.302;2023-06-14T08:01:42;5.95;;;3.65;;
33160;SDS011;19522;45.656;11.302;2023-06-14T08:04:12;5.78;;;3.28;;
33160;SDS011;19522;45.656;11.302;2023-06-14T08:06:38;4.82;;;3.70;;
33160;SDS011;19522;45.656;11.302;2023-06-14T08:09:04;4.07;;;3.35;;
33160;SDS011;19522;45.656;11.302;2023-06-14T08:11:33;3.63;;;2.97;;
33160;SDS011;19522;45.656;11.302;2023-06-14T08:13:58;4.70;;;3.60;;
33160;SDS011;19522;45.656;11.302;2023-06-14T08:16:24;4.03;;;3.30;;
33160;SDS011;19522;45.656;11.302;2023-06-14T08:18:49;4.75;;;3.28;;
33160;SDS011;19522;45.656;11.302;2023-06-14T08:21:15;4.85;;;3.17;;
33160;SDS011;19522;45.656;11.302;2023-06-14T08:23:40;4.30;;;3.05;;
33160;SDS011;19522;45.656;11.302;2023-06-14T08:26:08;4.53;;;3.13;;
33160;SDS011;19522;45.656;11.302;2023-06-14T08:28:34;3.80;;;2.97;;
33160;SDS011;19522;45.656;11.302;2023-06-14T08:30:59;4.72;;;3.58;;
33160;SDS011;19522;45.656;11.302;2023-06-14T08:33:25;5.68;;;3.35;;
33160;SDS011;19522;45.656;11.302;2023-06-14T08:35:50;4.85;;;3.08;;
33160;SDS011;19522;45.656;11.302;2023-06-14T08:38:18;6.55;;;3.30;;
33160;SDS011;19522;45.656;11.302;2023-06-14T08:40:48;5.20;;;3.85;;
33160;SDS011;19522;45.656;11.302;2023-06-14T08:43:16;10.05;;;3.60;;
33160;SDS011;19522;45.656;11.302;2023-06-14T08:45:45;6.00;;;3.45;;
33160;SDS011;19522;45.656;11.302;2023-06-14T08:48:13;5.78;;;3.67;;
33160;SDS011;19522;45.656;11.302;2023-06-14T08:50:42;6.45;;;3.50;;
33160;SDS011;19522;45.656;11.302;2023-06-14T08:53:11;4.55;;;3.30;;
33160;SDS011;19522;45.656;11.302;2023-06-14T08:55:41;4.53;;;3.22;;
33160;SDS011;19522;45.656;11.302;2023-06-14T08:58:08;5.07;;;3.42;;
33160;SDS011;19522;45.656;11.302;2023-06-14T09:00:34;6.40;;;3.47;;
33160;SDS011;19522;45.656;11.302;2023-06-14T09:03:02;3.95;;;3.15;;
33160;SDS011;19522;45.656;11.302;2023-06-14T09:05:28;3.85;;;3.30;;
33160;SDS011;19522;45.656;11.302;2023-06-14T09:07:54;4.70;;;3.50;;
33160;SDS011;19522;45.656;11.302;2023-06-14T09:10:21;8.93;;;5.85;;
33160;SDS011;19522;45.656;11.302;2023-06-14T09:12:47;5.32;;;3.50;;
33160;SDS011;19522;45.656;11.302;2023-06-14T09:15:13;4.30;;;3.05;;
33160;SDS011;19522;45.656;11.302;2023-06-14T09:17:39;6.43;;;4.07;;
33160;SDS011;19522;45.656;11.302;2023-06-14T09:20:05;4.95;;;3.35;;
33160;SDS011;19522;45.656;11.302;2023-06-14T09:22:34;5.07;;;4.30;;
33160;SDS011;19522;45.656;11.302;2023-06-14T09:25:00;4.65;;;3.13;;
33160;SDS011;19522;45.656;11.302;2023-06-14T09:27:26;5.15;;;3.30;;
33160;SDS011;19522;45.656;11.302;2023-06-14T09:29:52;5.85;;;3.15;;
33160;SDS011;19522;45.656;11.302;2023-06-14T09:32:18;5.25;;;4.03;;
33160;SDS011;19522;45.656;11.302;2023-06-14T09:34:44;5.90;;;3.30;;
33160;SDS011;19522;45.656;11.302;2023-06-14T09:37:10;3.70;;;3.20;;
33160;SDS011;19522;45.656;11.302;2023-06-14T09:39:48;4.93;;;3.55;;
33160;SDS011;19522;45.656;11.302;2023-06-14T09:42:17;5.22;;;3.80;;
33160;SDS011;19522;45.656;11.302;2023-06-14T09:44:47;5.35;;;3.70;;
33160;SDS011;19522;45.656;11.302;2023-06-14T09:47:16;5.80;;;3.83;;
33160;SDS011;19522;45.656;11.302;2023-06-14T09:49:42;4.65;;;3.35;;
33160;SDS011;19522;45.656;11.302;2023-06-14T09:52:17;5.13;;;3.70;;
33160;SDS011;19522;45.656;11.302;2023-06-14T09:54:44;4.63;;;3.22;;
33160;SDS011;19522;45.656;11.302;2023-06-14T09:57:20;4.00;;;3.50;;
33160;SDS011;19522;45.656;11.302;2023-06-14T09:59:47;4.70;;;3.40;;
33160;SDS011;19522;45.656;11.302;2023-06-14T10:02:26;4.47;;;3.15;;
33160;SDS011;19522;45.656;11.302;2023-06-14T10:05:04;7.85;;;3.55;;
33160;SDS011;19522;45.656;11.302;2023-06-14T10:07:52;7.45;;;3.15;;
33160;SDS011;19522;45.656;11.302;2023-06-14T10:10:20;4.80;;;2.85;;
33160;SDS011;19522;45.656;11.302;2023-06-14T10:12:46;4.90;;;3.28;;
33160;SDS011;19522;45.656;11.302;2023-06-14T10:15:17;5.60;;;3.13;;
33160;SDS011;19522;45.656;11.302;2023-06-14T10:17:53;4.50;;;3.20;;
33160;SDS011;19522;45.656;11.302;2023-06-14T10:23:33;3.60;;;2.75;;
33160;SDS011;19522;45.656;11.302;2023-06-14T10:26:03;6.05;;;3.80;;
33160;SDS011;19522;45.656;11.302;2023-06-14T10:28:28;6.45;;;4.35;;
33160;SDS011;19522;45.656;11.302;2023-06-14T10:33:30;5.03;;;4.10;;
33160;SDS011;19522;45.656;11.302;2023-06-14T10:36:27;5.90;;;4.13;;
33160;SDS011;19522;45.656;11.302;2023-06-14T10:39:00;7.32;;;4.65;;
33160;SDS011;19522;45.656;11.302;2023-06-14T10:41:42;7.95;;;4.10;;
33160;SDS011;19522;45.656;11.302;2023-06-14T10:46:48;4.75;;;3.45;;
33160;SDS011;19522;45.656;11.302;2023-06-14T10:49:20;5.07;;;3.60;;
33160;SDS011;19522;45.656;11.302;2023-06-14T10:52:10;5.85;;;3.70;;
33160;SDS011;19522;45.656;11.302;2023-06-14T10:54:58;3.75;;;3.17;;
33160;SDS011;19522;45.656;11.302;2023-06-14T10:57:25;6.35;;;3.70;;
33160;SDS011;19522;45.656;11.302;2023-06-14T10:59:50;6.65;;;3.95;;
33160;SDS011;19522;45.656;11.302;2023-06-14T11:04:51;4.40;;;3.53;;
33160;SDS011;19522;45.656;11.302;2023-06-14T11:10:09;6.13;;;3.22;;
33160;SDS011;19522;45.656;11.302;2023-06-14T11:12:47;4.28;;;3.58;;
33160;SDS011;19522;45.656;11.302;2023-06-14T11:15:13;6.50;;;4.47;;
33160;SDS011;19522;45.656;11.302;2023-06-14T11:17:39;6.35;;;3.78;;
33160;SDS011;19522;45.656;11.302;2023-06-14T11:20:16;4.85;;;3.67;;
33160;SDS011;19522;45.656;11.302;2023-06-14T11:22:42;4.93;;;3.05;;
33160;SDS011;19522;45.656;11.302;2023-06-14T11:25:14;5.68;;;3.65;;
33160;SDS011;19522;45.656;11.302;2023-06-14T11:27:42;4.35;;;3.28;;
33160;SDS011;19522;45.656;11.302;2023-06-14T11:30:08;3.97;;;3.20;;
33160;SDS011;19522;45.656;11.302;2023-06-14T11:32:35;4.95;;;3.28;;
33160;SDS011;19522;45.656;11.302;2023-06-14T11:35:05;6.13;;;3.72;;
33160;SDS011;19522;45.656;11.302;2023-06-14T11:37:31;5.30;;;3.53;;
33160;SDS011;19522;45.656;11.302;2023-06-14T11:40:00;5.32;;;3.92;;
33160;SDS011;19522;45.656;11.302;2023-06-14T11:42:28;4.63;;;3.67;;
33160;SDS011;19522;45.656;11.302;2023-06-14T11:44:57;7.70;;;3.85;;
33160;SDS011;19522;45.656;11.302;2023-06-14T11:47:23;4.40;;;3.47;;
33160;SDS011;19522;45.656;11.302;2023-06-14T11:49:48;4.30;;;3.33;;
33160;SDS011;19522;45.656;11.302;2023-06-14T11:52:14;8.35;;;4.20;;
33160;SDS011;19522;45.656;11.302;2023-06-14T11:54:40;5.18;;;3.65;;
33160;SDS011;19522;45.656;11.302;2023-06-14T11:57:09;4.45;;;3.35;;
33160;SDS011;19522;45.656;11.302;2023-06-14T11:59:38;4.55;;;3.65;;
33160;SDS011;19522;45.656;11.302;2023-06-14T12:02:05;5.72;;;3.47;;
33160;SDS011;19522;45.656;11.302;2023-06-14T12:04:32;5.00;;;3.63;;
33160;SDS011;19522;45.656;11.302;2023-06-14T12:07:08;4.00;;;3.20;;
33160;SDS011;19522;45.656;11.302;2023-06-14T12:09:40;5.22;;;3.50;;
33160;SDS011;19522;45.656;11.302;2023-06-14T12:12:08;6.28;;;3.60;;
33160;SDS011;19522;45.656;11.302;2023-06-14T12:14:34;3.97;;;2.97;;
33160;SDS011;19522;45.656;11.302;2023-06-14T12:17:05;5.78;;;3.63;;
33160;SDS011;19522;45.656;11.302;2023-06-14T12:19:33;3.50;;;3.00;;
33160;SDS011;19522;45.656;11.302;2023-06-14T12:22:06;5.25;;;3.70;;
33160;SDS011;19522;45.656;11.302;2023-06-14T12:24:34;5.18;;;3.55;;
33160;SDS011;19522;45.656;11.302;2023-06-14T12:27:00;5.88;;;4.07;;
33160;SDS011;19522;45.656;11.302;2023-06-14T12:29:28;5.57;;;3.72;;
33160;SDS011;19522;45.656;11.302;2023-06-14T12:31:54;7.10;;;3.25;;
33160;SDS011;19522;45.656;11.302;2023-06-14T12:34:22;5.13;;;3.50;;
33160;SDS011;19522;45.656;11.302;2023-06-14T12:36:48;6.97;;;3.40;;
33160;SDS011;19522;45.656;11.302;2023-06-14T12:39:14;7.95;;;3.63;;
33160;SDS011;19522;45.656;11.302;2023-06-14T12:41:40;5.93;;;3.50;;
33160;SDS011;19522;45.656;11.302;2023-06-14T12:44:12;5.22;;;3.55;;
33160;SDS011;19522;45.656;11.302;2023-06-14T12:46:38;4.15;;;3.17;;
33160;SDS011;19522;45.656;11.302;2023-06-14T12:49:05;5.22;;;3.60;;
33160;SDS011;19522;45.656;11.302;2023-06-14T12:51:31;5.30;;;3.53;;
33160;SDS011;19522;45.656;11.302;2023-06-14T12:53:57;5.45;;;3.20;;
33160;SDS011;19522;45.656;11.302;2023-06-14T12:56:25;4.25;;;3.35;;
33160;SDS011;19522;45.656;11.302;2023-06-14T12:58:51;4.10;;;3.30;;
33160;SDS011;19522;45.656;11.302;2023-06-14T13:01:17;6.30;;;3.60;;
33160;SDS011;19522;45.656;11.302;2023-06-14T13:03:42;6.22;;;4.35;;
33160;SDS011;19522;45.656;11.302;2023-06-14T13:06:08;4.28;;;3.65;;
33160;SDS011;19522;45.656;11.302;2023-06-14T13:08:33;5.35;;;3.05;;
33160;SDS011;19522;45.656;11.302;2023-06-14T13:10:59;4.78;;;3.30;;
33160;SDS011;19522;45.656;11.302;2023-06-14T13:13:25;5.10;;;4.05;;
33160;SDS011;19522;45.656;11.302;2023-06-14T13:15:51;3.80;;;3.35;;
33160;SDS011;19522;45.656;11.302;2023-06-14T13:18:17;7.38;;;3.67;;
33160;SDS011;19522;45.656;11.302;2023-06-14T13:20:42;5.95;;;3.50;;
33160;SDS011;19522;45.656;11.302;2023-06-14T13:23:08;6.10;;;4.55;;
33160;SDS011;19522;45.656;11.302;2023-06-14T13:25:34;4.80;;;3.35;;
33160;SDS011;19522;45.656;11.302;2023-06-14T13:28:00;8.75;;;4.78;;
33160;SDS011;19522;45.656;11.302;2023-06-14T13:30:26;9.05;;;4.43;;
33160;SDS011;19522;45.656;11.302;2023-06-14T13:32:51;7.30;;;4.75;;
33160;SDS011;19522;45.656;11.302;2023-06-14T13:35:17;5.47;;;3.33;;
33160;SDS011;19522;45.656;11.302;2023-06-14T13:37:46;6.45;;;3.75;;
33160;SDS011;19522;45.656;11.302;2023-06-14T13:40:12;5.60;;;3.83;;
33160;SDS011;19522;45.656;11.302;2023-06-14T13:42:37;4.68;;;3.20;;
33160;SDS011;19522;45.656;11.302;2023-06-14T13:45:03;5.10;;;3.38;;
33160;SDS011;19522;45.656;11.302;2023-06-14T13:47:30;4.70;;;3.30;;
33160;SDS011;19522;45.656;11.302;2023-06-14T13:49:56;4.03;;;3.13;;
33160;SDS011;19522;45.656;11.302;2023-06-14T13:52:21;4.18;;;3.10;;
33160;SDS011;19522;45.656;11.302;2023-06-14T13:54:47;5.00;;;3.85;;
33160;SDS011;19522;45.656;11.302;2023-06-14T13:57:13;5.80;;;3.40;;
33160;SDS011;19522;45.656;11.302;2023-06-14T13:59:39;5.38;;;3.30;;
33160;SDS011;19522;45.656;11.302;2023-06-14T14:02:05;5.38;;;3.30;;
33160;SDS011;19522;45.656;11.302;2023-06-14T14:04:31;6.95;;;3.33;;
33160;SDS011;19522;45.656;11.302;2023-06-14T14:06:57;6.47;;;3.00;;
33160;SDS011;19522;45.656;11.302;2023-06-14T14:09:22;3.72;;;3.22;;
33160;SDS011;19522;45.656;11.302;2023-06-14T14:11:48;6.47;;;3.58;;
33160;SDS011;19522;45.656;11.302;2023-06-14T14:14:14;4.65;;;3.75;;
33160;SDS011;19522;45.656;11.302;2023-06-14T14:16:40;6.88;;;3.95;;
33160;SDS011;19522;45.656;11.302;2023-06-14T14:19:05;6.35;;;4.43;;
33160;SDS011;19522;45.656;11.302;2023-06-14T14:21:33;5.65;;;3.97;;
33160;SDS011;19522;45.656;11.302;2023-06-14T14:24:00;5.40;;;3.35;;
33160;SDS011;19522;45.656;11.302;2023-06-14T14:26:25;8.00;;;4.40;;
33160;SDS011;19522;45.656;11.302;2023-06-14T14:28:51;7.45;;;4.32;;
33160;SDS011;19522;45.656;11.302;2023-06-14T14:31:17;8.07;;;3.67;;
33160;SDS011;19522;45.656;11.302;2023-06-14T14:33:42;7.28;;;3.63;;
33160;SDS011;19522;45.656;11.302;2023-06-14T14:36:08;5.03;;;3.38;;
33160;SDS011;19522;45.656;11.302;2023-06-14T14:38:34;5.78;;;2.88;;
33160;SDS011;19522;45.656;11.302;2023-06-14T14:40:59;4.55;;;3.55;;
33160;SDS011;19522;45.656;11.302;2023-06-14T14:43:25;4.57;;;3.42;;
33160;SDS011;19522;45.656;11.302;2023-06-14T14:45:51;4.80;;;3.50;;
33160;SDS011;19522;45.656;11.302;2023-06-14T14:48:17;8.35;;;3.92;;
33160;SDS011;19522;45.656;11.302;2023-06-14T14:50:42;4.93;;;3.85;;
33160;SDS011;19522;45.656;11.302;2023-06-14T14:53:08;5.65;;;3.72;;